createdAt,value
2019-02-28T00:00:08.136Z,90.10
2019-02-28T00:02:39.827Z,90.10
2019-02-28T00:05:11.593Z,90.10
2019-02-28T00:07:44.427Z,90.10
2019-02-28T00:10:16.182Z,90.10
2019-02-28T00:12:48.567Z,90.10
2019-02-28T00:15:21.701Z,90.20
2019-02-28T00:17:53.563Z,90.20
2019-02-28T00:20:25.220Z,90.20
2019-02-28T00:22:56.865Z,90.10
2019-02-28T00:25:28.437Z,90.20
2019-02-28T00:27:59.960Z,90.20
2019-02-28T00:30:31.643Z,90.10
2019-02-28T00:33:03.554Z,90.20
2019-02-28T00:35:35.706Z,90.20
2019-02-28T00:38:07.282Z,90.20
2019-02-28T00:40:39.265Z,90.20
2019-02-28T00:43:10.910Z,90.20
2019-02-28T00:45:42.878Z,90.20
2019-02-28T00:48:14.531Z,90.20
2019-02-28T00:50:46.156Z,90.10
2019-02-28T00:53:17.748Z,90.10
2019-02-28T00:55:49.254Z,90.10
2019-02-28T00:58:20.510Z,90.00
2019-02-28T01:00:52.443Z,90.00
2019-02-28T01:03:26.836Z,90.00
2019-02-28T01:05:57.536Z,90.00
2019-02-28T01:08:29.002Z,89.80
2019-02-28T01:11:00.681Z,89.60
2019-02-28T01:13:32.450Z,89.40
2019-02-28T01:16:04.490Z,89.30
2019-02-28T01:18:36.306Z,89.00
2019-02-28T01:21:09.430Z,88.70
2019-02-28T01:23:40.983Z,88.50
2019-02-28T01:26:12.614Z,88.50
2019-02-28T01:28:44.072Z,88.30
2019-02-28T01:31:15.726Z,88.20
2019-02-28T01:33:48.050Z,88.10
2019-02-28T01:36:20.059Z,87.90
2019-02-28T01:38:51.682Z,87.60
2019-02-28T01:41:23.464Z,87.40
2019-02-28T01:43:55.030Z,87.10
2019-02-28T01:46:26.719Z,87.00
2019-02-28T01:48:58.543Z,87.50
2019-02-28T01:51:35.633Z,86.60
2019-02-28T01:54:03.703Z,86.50
2019-02-28T01:56:36.974Z,86.30
2019-02-28T01:59:08.432Z,86.00
2019-02-28T02:01:41.312Z,85.70
2019-02-28T02:04:13.225Z,85.60
2019-02-28T02:06:44.811Z,86.20
2019-02-28T02:09:16.846Z,85.30
2019-02-28T02:11:48.302Z,85.00
2019-02-28T02:14:19.955Z,84.80
2019-02-28T02:16:52.174Z,84.70
2019-02-28T02:19:23.711Z,84.60
2019-02-28T02:21:55.246Z,84.50
2019-02-28T02:24:27.877Z,84.50
2019-02-28T02:27:00.091Z,84.40
2019-02-28T02:29:32.367Z,84.20
2019-02-28T02:32:04.858Z,84.20
2019-02-28T02:34:36.806Z,84.10
2019-02-28T02:37:08.551Z,84.10
2019-02-28T02:39:40.127Z,84.10
2019-02-28T02:42:11.957Z,84.00
2019-02-28T02:44:45.809Z,84.00
2019-02-28T02:47:17.445Z,84.00
2019-02-28T02:49:56.127Z,84.00
2019-02-28T02:52:25.852Z,84.00
2019-02-28T02:54:55.465Z,84.00
2019-02-28T02:57:27.179Z,83.80
2019-02-28T02:59:58.813Z,83.80
2019-02-28T03:02:33.121Z,83.80
2019-02-28T03:05:03.697Z,83.80
2019-02-28T03:07:35.321Z,83.60
2019-02-28T03:10:06.935Z,83.50
2019-02-28T03:12:38.474Z,83.50
2019-02-28T03:15:11.306Z,83.20
2019-02-28T03:17:46.644Z,83.10
2019-02-28T03:20:16.124Z,82.90
2019-02-28T03:22:47.629Z,82.80
2019-02-28T03:25:19.240Z,82.50
2019-02-28T03:27:54.986Z,82.30
2019-02-28T03:30:31.850Z,82.00
2019-02-28T03:32:57.456Z,81.60
2019-02-28T03:35:40.006Z,81.30
2019-02-28T03:38:10.552Z,80.90
2019-02-28T03:40:40.240Z,80.60
2019-02-28T03:43:10.719Z,80.30
2019-02-28T03:45:42.469Z,80.70
2019-02-28T03:48:14.115Z,80.00
2019-02-28T03:50:45.870Z,79.60
2019-02-28T03:53:20.029Z,79.40
2019-02-28T03:55:50.771Z,80.00
2019-02-28T03:58:22.258Z,79.00
2019-02-28T04:00:53.845Z,78.70
2019-02-28T04:03:25.475Z,78.70
2019-02-28T04:06:03.354Z,78.80
2019-02-28T04:08:30.823Z,78.40
2019-02-28T04:11:02.697Z,78.30
2019-02-28T04:13:34.384Z,78.30
2019-02-28T04:16:08.932Z,78.10
2019-02-28T04:18:44.147Z,77.90
2019-02-28T04:21:12.632Z,77.70
2019-02-28T04:23:46.692Z,77.30
2019-02-28T04:26:18.281Z,77.80
2019-02-28T04:28:53.499Z,76.80
2019-02-28T04:31:23.393Z,76.60
2019-02-28T04:33:55.560Z,76.40
2019-02-28T04:36:27.565Z,76.30
2019-02-28T04:38:59.176Z,76.10
2019-02-28T04:41:32.826Z,76.00
2019-02-28T04:44:04.655Z,75.80
2019-02-28T04:46:36.417Z,75.30
2019-02-28T04:49:08.278Z,75.00
2019-02-28T04:51:40.149Z,74.90
2019-02-28T04:54:13.309Z,74.70
2019-02-28T04:56:45.578Z,74.70
2019-02-28T04:59:18.282Z,74.70
2019-02-28T05:01:50.190Z,74.60
2019-02-28T05:04:21.980Z,74.60
2019-02-28T05:06:55.158Z,74.40
2019-02-28T05:09:27.209Z,74.10
2019-02-28T05:11:58.845Z,74.10
2019-02-28T05:14:30.419Z,73.90
2019-02-28T05:17:01.980Z,73.70
2019-02-28T05:19:35.853Z,73.60
2019-02-28T05:22:06.875Z,73.50
2019-02-28T05:24:39.390Z,73.60
2019-02-28T05:27:12.205Z,73.50
2019-02-28T05:29:44.825Z,73.30
2019-02-28T05:32:16.902Z,73.20
2019-02-28T05:34:51.124Z,73.00
2019-02-28T05:37:22.024Z,73.00
2019-02-28T05:39:53.726Z,72.90
2019-02-28T05:42:25.387Z,72.90
2019-02-28T05:44:57.484Z,73.30
2019-02-28T05:47:29.400Z,72.50
2019-02-28T05:50:02.432Z,72.20
2019-02-28T05:52:34.611Z,71.90
2019-02-28T05:55:06.378Z,71.70
2019-02-28T05:57:39.440Z,71.30
2019-02-28T06:00:12.014Z,70.80
2019-02-28T06:02:44.369Z,70.50
2019-02-28T06:05:16.194Z,69.90
2019-02-28T06:07:47.835Z,69.30
2019-02-28T06:10:23.544Z,69.00
2019-02-28T06:12:52.920Z,68.80
2019-02-28T06:15:25.186Z,68.50
2019-02-28T06:17:56.980Z,68.30
2019-02-28T06:20:29.039Z,68.20
2019-02-28T06:23:00.838Z,68.00
2019-02-28T06:25:32.769Z,67.90
2019-02-28T06:28:07.016Z,67.60
2019-02-28T06:30:41.554Z,67.40
2019-02-28T06:33:12.604Z,67.00
2019-02-28T06:35:49.548Z,66.70
2019-02-28T06:38:20.510Z,66.60
2019-02-28T06:40:52.812Z,66.30
2019-02-28T06:43:30.007Z,65.90
2019-02-28T06:46:03.757Z,66.40
2019-02-28T06:48:35.426Z,65.40
2019-02-28T06:51:07.140Z,65.10
2019-02-28T06:53:40.926Z,65.10
2019-02-28T06:56:16.352Z,65.20
2019-02-28T06:58:48.264Z,65.10
2019-02-28T07:01:22.680Z,65.00
2019-02-28T07:03:53.849Z,64.80
2019-02-28T07:06:25.877Z,65.10
2019-02-28T07:09:02.126Z,65.40
2019-02-28T07:11:38.366Z,65.40
2019-02-28T07:14:13.783Z,65.40
2019-02-28T07:16:44.512Z,66.20
2019-02-28T07:19:16.311Z,65.20
2019-02-28T07:21:48.415Z,65.30
2019-02-28T07:24:20.278Z,65.10
2019-02-28T07:26:53.030Z,64.80
2019-02-28T07:29:24.971Z,64.60
2019-02-28T07:31:59.995Z,64.10
2019-02-28T07:34:30.457Z,63.20
2019-02-28T07:37:02.226Z,61.90
2019-02-28T07:39:36.531Z,59.90
2019-02-28T07:42:07.972Z,58.60
2019-02-28T07:44:40.193Z,57.80
2019-02-28T07:47:17.145Z,57.10
2019-02-28T07:49:47.257Z,56.50
2019-02-28T07:52:20.448Z,56.20
2019-02-28T07:54:55.527Z,55.70
2019-02-28T07:57:26.014Z,55.50
2019-02-28T07:59:57.516Z,54.40
2019-02-28T08:02:29.430Z,53.70
2019-02-28T08:05:02.984Z,52.60
2019-02-28T08:07:36.572Z,51.10
2019-02-28T08:10:12.768Z,49.10
2019-02-28T08:12:44.363Z,48.50
2019-02-28T08:15:22.283Z,48.50
2019-02-28T08:17:52.947Z,48.00
2019-02-28T08:20:24.614Z,47.70
2019-02-28T08:22:57.803Z,47.30
2019-02-28T08:25:29.964Z,47.30
2019-02-28T08:28:01.954Z,47.00
2019-02-28T08:30:33.743Z,47.20
2019-02-28T08:33:05.626Z,47.10
2019-02-28T08:35:37.810Z,46.80
2019-02-28T08:38:09.670Z,46.60
2019-02-28T08:40:43.036Z,46.30
2019-02-28T08:43:16.424Z,45.30
2019-02-28T08:45:48.415Z,44.40
2019-02-28T08:48:44.922Z,43.60
2019-02-28T08:51:17.166Z,42.90
2019-02-28T08:53:51.277Z,42.50
2019-02-28T08:56:22.332Z,42.80
2019-02-28T08:58:54.528Z,42.10
2019-02-28T09:01:26.577Z,42.80
2019-02-28T09:03:59.849Z,42.20
2019-02-28T09:06:32.030Z,42.10
2019-02-28T09:09:04.776Z,41.60
2019-02-28T09:11:38.519Z,41.30
2019-02-28T09:14:10.432Z,41.60
2019-02-28T09:16:44.806Z,41.80
2019-02-28T09:19:16.826Z,41.50
2019-02-28T09:21:49.377Z,41.20
2019-02-28T09:24:22.438Z,41.00
2019-02-28T09:26:54.488Z,41.20
2019-02-28T09:29:29.425Z,41.40
2019-02-28T09:32:01.666Z,41.70
2019-02-28T09:34:34.295Z,41.40
2019-02-28T09:37:06.081Z,41.50
2019-02-28T09:39:38.107Z,41.60
2019-02-28T09:42:14.853Z,41.80
2019-02-28T09:44:43.770Z,41.70
2019-02-28T09:47:15.910Z,42.00
2019-02-28T09:49:48.150Z,42.00
2019-02-28T09:52:20.047Z,41.90
2019-02-28T09:54:51.940Z,41.90
2019-02-28T09:57:23.713Z,41.70
2019-02-28T09:59:55.936Z,41.80
2019-02-28T10:02:27.926Z,41.50
2019-02-28T10:05:02.931Z,41.60
2019-02-28T10:07:34.498Z,41.60
2019-02-28T10:10:06.793Z,41.80
2019-02-28T10:12:39.451Z,41.80
2019-02-28T10:15:18.650Z,42.00
2019-02-28T10:17:50.469Z,42.20
2019-02-28T10:20:27.222Z,42.10
2019-02-28T10:22:59.616Z,42.00
2019-02-28T10:25:33.518Z,42.10
2019-02-28T10:28:05.578Z,41.90
2019-02-28T10:30:42.556Z,41.80
2019-02-28T10:33:17.396Z,41.90
2019-02-28T10:35:52.394Z,42.10
2019-02-28T10:38:29.511Z,42.30
2019-02-28T10:41:02.271Z,42.70
2019-02-28T10:43:34.532Z,42.50
2019-02-28T10:46:36.043Z,41.50
2019-02-28T10:49:07.766Z,40.60
2019-02-28T10:51:39.679Z,41.10
2019-02-28T10:54:16.629Z,40.60
2019-02-28T10:56:49.492Z,41.40
2019-02-28T10:59:24.239Z,42.40
2019-02-28T11:01:55.052Z,43.60
2019-02-28T11:04:27.613Z,44.90
2019-02-28T11:07:02.250Z,46.00
2019-02-28T11:09:33.211Z,46.60
2019-02-28T11:12:06.800Z,47.10
2019-02-28T11:14:39.897Z,47.60
2019-02-28T11:17:13.887Z,48.40
2019-02-28T11:19:48.503Z,48.00
2019-02-28T11:22:19.864Z,48.40
2019-02-28T11:24:51.778Z,48.70
2019-02-28T11:27:28.186Z,49.20
2019-02-28T11:30:00.247Z,49.50
2019-02-28T11:32:33.403Z,50.00
2019-02-28T11:35:05.441Z,50.40
2019-02-28T11:37:37.264Z,50.60
2019-02-28T11:40:09.938Z,51.50
2019-02-28T11:42:42.182Z,51.00
2019-02-28T11:45:18.610Z,51.20
2019-02-28T11:47:50.796Z,51.50
2019-02-28T11:50:22.882Z,51.60
2019-02-28T11:52:54.342Z,51.80
2019-02-28T11:55:27.176Z,52.00
2019-02-28T11:57:59.424Z,52.40
2019-02-28T12:00:32.579Z,52.80
2019-02-28T12:03:06.112Z,52.90
2019-02-28T12:05:38.342Z,52.70
2019-02-28T12:08:13.561Z,52.60
2019-02-28T12:10:45.482Z,52.80
2019-02-28T12:13:19.577Z,52.60
2019-02-28T12:15:58.783Z,52.60
2019-02-28T12:18:30.594Z,52.70
2019-02-28T12:21:04.846Z,52.20
2019-02-28T12:23:36.452Z,52.20
2019-02-28T12:26:08.278Z,52.30
2019-02-28T12:28:39.599Z,51.90
2019-02-28T12:31:15.937Z,51.80
2019-02-28T12:33:53.466Z,51.70
2019-02-28T12:36:24.042Z,51.40
2019-02-28T12:38:59.442Z,51.40
2019-02-28T12:41:30.072Z,51.20
2019-02-28T12:44:02.381Z,51.10
2019-02-28T12:46:34.172Z,51.20
2019-02-28T12:49:06.896Z,51.30
2019-02-28T12:51:39.707Z,51.30
2019-02-28T12:54:12.611Z,51.10
2019-02-28T12:56:45.149Z,51.00
2019-02-28T12:59:18.046Z,50.80
2019-02-28T13:01:49.926Z,50.70
2019-02-28T13:04:21.974Z,50.70
2019-02-28T13:06:55.582Z,50.80
2019-02-28T13:09:30.180Z,51.00
2019-02-28T13:12:08.044Z,50.80
2019-02-28T13:14:40.808Z,50.80
2019-02-28T13:17:13.651Z,50.90
2019-02-28T13:19:47.909Z,51.00
2019-02-28T13:22:23.627Z,51.10
2019-02-28T13:24:55.339Z,51.10
2019-02-28T13:27:27.331Z,51.20
2019-02-28T13:30:00.194Z,51.40
2019-02-28T13:32:33.762Z,51.40
2019-02-28T13:35:07.531Z,51.30
2019-02-28T13:37:56.245Z,51.50
2019-02-28T13:40:28.225Z,51.60
2019-02-28T13:43:02.153Z,52.50
2019-02-28T13:45:34.247Z,52.90
2019-02-28T13:48:06.429Z,52.70
2019-02-28T13:50:39.003Z,52.60
2019-02-28T13:53:18.990Z,52.70
2019-02-28T13:55:45.624Z,52.70
2019-02-28T13:58:21.581Z,52.80
2019-02-28T14:00:51.378Z,52.90
2019-02-28T14:03:24.782Z,53.00
2019-02-28T14:05:58.600Z,53.00
2019-02-28T14:08:30.014Z,53.30
2019-02-28T14:11:02.088Z,53.70
2019-02-28T14:13:34.679Z,54.00
2019-02-28T14:16:07.300Z,54.80
2019-02-28T14:18:42.592Z,54.60
2019-02-28T14:21:14.433Z,55.00
2019-02-28T14:23:47.991Z,55.20
2019-02-28T14:26:19.925Z,55.60
2019-02-28T14:28:51.754Z,55.60
2019-02-28T14:31:24.162Z,55.70
2019-02-28T14:33:56.041Z,55.70
2019-02-28T14:36:28.336Z,55.50
2019-02-28T14:39:04.700Z,55.40
2019-02-28T14:41:35.290Z,55.30
2019-02-28T14:44:08.681Z,55.30
2019-02-28T14:46:43.395Z,55.30
2019-02-28T14:49:21.865Z,55.40
2019-02-28T14:51:54.997Z,55.30
2019-02-28T14:54:27.078Z,55.40
2019-02-28T14:56:59.054Z,55.70
2019-02-28T14:59:33.881Z,56.00
2019-02-28T15:02:09.372Z,56.00
2019-02-28T15:04:42.485Z,56.30
2019-02-28T15:07:14.596Z,56.50
2019-02-28T15:09:48.441Z,56.70
2019-02-28T15:12:24.449Z,56.70
2019-02-28T15:14:54.694Z,56.30
2019-02-28T15:17:26.828Z,57.00
2019-02-28T15:20:01.093Z,55.90
2019-02-28T15:22:34.253Z,55.10
2019-02-28T15:25:06.346Z,55.00
2019-02-28T15:27:39.019Z,55.30
2019-02-28T15:30:19.018Z,55.30
2019-02-28T15:32:54.245Z,56.30
2019-02-28T15:35:24.604Z,56.20
2019-02-28T15:37:57.253Z,56.30
2019-02-28T15:40:31.504Z,56.50
2019-02-28T15:43:03.340Z,56.80
2019-02-28T15:45:36.484Z,57.10
2019-02-28T15:48:09.407Z,57.80
2019-02-28T15:50:41.509Z,58.20
2019-02-28T15:53:15.129Z,58.10
2019-02-28T15:55:50.962Z,58.30
2019-02-28T15:58:22.990Z,58.60
2019-02-28T16:00:56.647Z,58.70
2019-02-28T16:03:28.932Z,59.00
2019-02-28T16:06:01.176Z,59.30
2019-02-28T16:08:33.401Z,59.70
2019-02-28T16:11:06.272Z,60.30
2019-02-28T16:13:43.164Z,60.60
2019-02-28T16:16:16.214Z,61.10
2019-02-28T16:18:47.978Z,61.60
2019-02-28T16:21:20.412Z,61.80
2019-02-28T16:23:52.005Z,62.20
2019-02-28T16:26:23.921Z,62.50
2019-02-28T16:28:55.991Z,62.80
2019-02-28T16:31:27.659Z,63.00
2019-02-28T16:34:08.226Z,63.40
2019-02-28T16:36:50.529Z,64.00
2019-02-28T16:39:22.445Z,64.00
2019-02-28T16:41:54.281Z,63.90
2019-02-28T16:44:27.575Z,64.20
2019-02-28T16:47:03.513Z,64.40
2019-02-28T16:49:35.496Z,64.60
2019-02-28T16:52:07.533Z,64.90
2019-02-28T16:54:39.947Z,65.00
2019-02-28T16:57:13.141Z,65.10
2019-02-28T16:59:44.931Z,65.50
2019-02-28T17:02:21.981Z,66.00
2019-02-28T17:04:54.258Z,66.30
2019-02-28T17:07:27.256Z,66.60
2019-02-28T17:10:01.632Z,66.90
2019-02-28T17:12:52.985Z,67.40
2019-02-28T17:15:34.039Z,67.80
2019-02-28T17:18:13.561Z,68.00
2019-02-28T17:20:45.062Z,68.40
2019-02-28T17:23:18.829Z,68.70
2019-02-28T17:25:53.587Z,69.00
2019-02-28T17:28:51.544Z,69.50
2019-02-28T17:31:44.629Z,69.60
2019-02-28T17:34:23.755Z,69.70
2019-02-28T17:36:53.640Z,69.60
2019-02-28T17:39:27.989Z,70.00
2019-02-28T17:42:08.534Z,70.10
2019-02-28T17:45:06.206Z,70.20
2019-02-28T17:48:24.881Z,70.20
2019-02-28T17:51:31.048Z,70.20
2019-02-28T17:54:43.041Z,70.30
2019-02-28T17:58:01.340Z,70.30
2019-02-28T18:01:12.549Z,70.60
2019-02-28T18:04:08.157Z,70.80
2019-02-28T18:07:23.714Z,70.90
2019-02-28T18:10:47.739Z,71.00
2019-02-28T18:13:55.193Z,71.30
2019-02-28T18:17:02.292Z,71.60
2019-02-28T18:20:32.269Z,72.00
2019-02-28T18:24:00.110Z,72.60
2019-02-28T18:27:17.976Z,73.20
2019-02-28T18:30:25.278Z,73.40
2019-02-28T18:32:57.328Z,74.10
2019-02-28T18:35:32.510Z,74.10
2019-02-28T18:38:08.030Z,74.30
2019-02-28T18:40:45.236Z,74.50
2019-02-28T18:43:17.158Z,74.70
2019-02-28T18:45:53.559Z,75.10
2019-02-28T18:48:24.402Z,75.30
2019-02-28T18:50:56.358Z,75.90
2019-02-28T18:53:30.788Z,76.20
2019-02-28T18:56:08.782Z,76.30
2019-02-28T18:58:40.789Z,76.30
2019-02-28T19:01:14.314Z,76.50
2019-02-28T19:03:46.060Z,76.60
2019-02-28T19:06:17.856Z,76.80
2019-02-28T19:08:50.415Z,76.90
2019-02-28T19:11:25.583Z,76.40
2019-02-28T19:13:57.222Z,77.20
2019-02-28T19:16:29.928Z,76.00
2019-02-28T19:19:02.037Z,75.60
2019-02-28T19:21:33.708Z,75.50
2019-02-28T19:24:05.616Z,75.30
2019-02-28T19:26:37.536Z,75.20
2019-02-28T19:29:09.730Z,75.10
2019-02-28T19:31:43.800Z,75.10
2019-02-28T19:34:15.784Z,75.10
2019-02-28T19:36:47.694Z,75.20
2019-02-28T19:39:19.869Z,75.00
2019-02-28T19:41:53.032Z,74.40
2019-02-28T19:44:25.814Z,71.60
2019-02-28T19:46:57.707Z,70.00
2019-02-28T19:49:29.780Z,67.40
2019-02-28T19:52:03.497Z,63.80
2019-02-28T19:54:36.180Z,61.30
2019-02-28T19:57:07.989Z,59.50
2019-02-28T19:59:40.441Z,58.30
2019-02-28T20:02:13.862Z,58.10
2019-02-28T20:04:48.192Z,57.50
2019-02-28T20:07:20.266Z,57.30
2019-02-28T20:09:54.150Z,57.40
2019-02-28T20:12:27.412Z,58.20
2019-02-28T20:15:01.275Z,57.50
2019-02-28T20:17:36.660Z,57.50
2019-02-28T20:20:11.664Z,57.80
2019-02-28T20:22:46.208Z,58.00
2019-02-28T20:25:17.101Z,58.20
2019-02-28T20:27:49.468Z,57.90
2019-02-28T20:30:21.580Z,57.90
2019-02-28T20:32:53.883Z,57.70
2019-02-28T20:35:27.485Z,57.60
2019-02-28T20:38:02.507Z,57.40
2019-02-28T20:40:34.397Z,57.00
2019-02-28T20:43:07.454Z,57.10
2019-02-28T20:45:40.645Z,56.80
2019-02-28T20:48:14.312Z,56.20
2019-02-28T20:50:47.766Z,56.20
2019-02-28T20:53:19.484Z,56.40
2019-02-28T20:55:51.619Z,56.70
2019-02-28T20:58:23.808Z,57.00
2019-02-28T21:00:55.461Z,57.30
2019-02-28T21:03:27.278Z,57.40
2019-02-28T21:05:59.476Z,57.80
2019-02-28T21:08:31.340Z,58.10
2019-02-28T21:11:06.688Z,58.40
2019-02-28T21:13:40.363Z,59.30
2019-02-28T21:16:14.725Z,59.00
2019-02-28T21:18:47.558Z,59.20
2019-02-28T21:21:21.927Z,59.60
2019-02-28T21:23:58.041Z,59.80
2019-02-28T21:26:29.883Z,60.30
2019-02-28T21:29:04.448Z,60.90
2019-02-28T21:31:37.530Z,61.40
2019-02-28T21:34:11.416Z,62.00
2019-02-28T21:36:45.434Z,62.40
2019-02-28T21:39:17.641Z,62.70
2019-02-28T21:41:50.016Z,63.00
2019-02-28T21:44:21.982Z,63.30
2019-02-28T21:46:54.152Z,63.60
2019-02-28T21:49:25.994Z,64.30
2019-02-28T21:52:00.137Z,64.50
2019-02-28T21:54:32.004Z,64.70
2019-02-28T21:57:03.915Z,65.10
2019-02-28T21:59:41.508Z,65.40
2019-02-28T22:02:15.788Z,65.90
2019-02-28T22:04:50.716Z,66.60
2019-02-28T22:07:23.895Z,66.80
2019-02-28T22:09:55.662Z,67.40
2019-02-28T22:12:27.339Z,68.50
2019-02-28T22:14:59.183Z,68.50
2019-02-28T22:17:30.786Z,68.80
2019-02-28T22:20:03.754Z,69.40
2019-02-28T22:22:36.812Z,70.10
2019-02-28T22:25:09.260Z,70.70
2019-02-28T22:27:41.354Z,71.50
2019-02-28T22:30:53.184Z,72.80
2019-02-28T22:33:44.376Z,74.10
2019-02-28T22:36:23.137Z,76.60
2019-02-28T22:38:55.204Z,77.10
2019-02-28T22:41:29.729Z,78.40
2019-02-28T22:44:03.978Z,79.60
2019-02-28T22:46:35.599Z,80.10
2019-02-28T22:49:07.705Z,80.60
2019-02-28T22:51:39.484Z,80.70
2019-02-28T22:54:12.656Z,81.50
2019-02-28T22:56:44.624Z,81.90
2019-02-28T22:59:16.644Z,82.60
2019-02-28T23:01:48.560Z,82.70
2019-02-28T23:04:20.680Z,82.90
2019-02-28T23:06:54.345Z,83.30
2019-02-28T23:09:27.366Z,83.60
2019-02-28T23:11:59.202Z,84.00
2019-02-28T23:14:32.796Z,84.10
2019-02-28T23:17:04.594Z,84.50
2019-02-28T23:19:36.266Z,84.90
2019-02-28T23:22:09.039Z,85.10
2019-02-28T23:24:40.843Z,85.20
2019-02-28T23:27:15.370Z,85.60
2019-02-28T23:30:32.248Z,85.90
2019-02-28T23:33:10.961Z,86.20
2019-02-28T23:35:44.222Z,86.30
2019-02-28T23:38:16.440Z,86.50
2019-02-28T23:40:48.402Z,86.80
2019-02-28T23:43:20.278Z,87.00
2019-02-28T23:45:54.294Z,87.10
2019-02-28T23:48:25.520Z,87.40
2019-02-28T23:50:57.399Z,87.60
2019-02-28T23:53:29.136Z,87.80
2019-02-28T23:56:01.014Z,88.00
2019-02-28T23:58:45.248Z,88.30
